createdAt,value
2022-10-19T00:00:06.934Z,98819.00
2022-10-19T00:00:17.051Z,98815.00
2022-10-19T00:00:27.168Z,98817.00
2022-10-19T00:00:37.291Z,98815.00
2022-10-19T00:00:47.289Z,98819.00
2022-10-19T00:00:57.304Z,98815.00
2022-10-19T00:01:07.714Z,98817.00
2022-10-19T00:01:17.683Z,98817.00
2022-10-19T00:01:27.677Z,98815.00
2022-10-19T00:01:38.122Z,98815.00
2022-10-19T00:01:48.173Z,98817.00
2022-10-19T00:01:58.224Z,98817.00
2022-10-19T00:02:08.316Z,98817.00
2022-10-19T00:02:18.401Z,98817.00
2022-10-19T00:02:28.462Z,98817.00
2022-10-19T00:02:38.449Z,98815.00
2022-10-19T00:02:48.442Z,98815.00
2022-10-19T00:02:58.557Z,98813.00
2022-10-19T00:03:08.671Z,98817.00
2022-10-19T00:03:22.313Z,98815.00
2022-10-19T00:03:28.889Z,98817.00
2022-10-19T00:03:39.108Z,98815.00
2022-10-19T00:04:00.013Z,98817.00
2022-10-19T00:04:09.182Z,98817.00
2022-10-19T00:04:19.297Z,98817.00
2022-10-19T00:04:29.299Z,98815.00
2022-10-19T00:04:39.416Z,98815.00
2022-10-19T00:04:49.530Z,98813.00
2022-10-19T00:04:59.660Z,98813.00
2022-10-19T00:05:09.652Z,98815.00
2022-10-19T00:05:19.771Z,98813.00
2022-10-19T00:05:30.024Z,98813.00
2022-10-19T00:05:40.138Z,98815.00
2022-10-19T00:05:50.255Z,98815.00
2022-10-19T00:06:00.375Z,98813.00
2022-10-19T00:06:10.381Z,98815.00
2022-10-19T00:06:20.501Z,98813.00
2022-10-19T00:06:30.764Z,98813.00
2022-10-19T00:06:40.883Z,98813.00
2022-10-19T00:06:51.005Z,98815.00
2022-10-19T00:07:01.128Z,98813.00
2022-10-19T00:07:11.239Z,98813.00
2022-10-19T00:07:21.359Z,98812.00
2022-10-19T00:07:31.825Z,98812.00
2022-10-19T00:07:41.570Z,98813.00
2022-10-19T00:07:51.682Z,98813.00
2022-10-19T00:08:01.931Z,98813.00
2022-10-19T00:08:11.938Z,98813.00
2022-10-19T00:08:22.059Z,98813.00
2022-10-19T00:08:32.316Z,98813.00
2022-10-19T00:08:42.438Z,98815.00
2022-10-19T00:08:52.447Z,98812.00
2022-10-19T00:09:02.685Z,98813.00
2022-10-19T00:09:12.795Z,98812.00
2022-10-19T00:09:22.921Z,98812.00
2022-10-19T00:09:33.046Z,98812.00
2022-10-19T00:09:43.171Z,98813.00
2022-10-19T00:09:53.171Z,98810.00
2022-10-19T00:10:03.417Z,98813.00
2022-10-19T00:10:13.534Z,98815.00
2022-10-19T00:10:23.658Z,98813.00
2022-10-19T00:10:33.781Z,98813.00
2022-10-19T00:10:43.920Z,98810.00
2022-10-19T00:10:53.911Z,98812.00
2022-10-19T00:11:04.162Z,98812.00
2022-10-19T00:11:14.177Z,98812.00
2022-10-19T00:11:24.276Z,98812.00
2022-10-19T00:11:34.627Z,98812.00
2022-10-19T00:11:44.619Z,98812.00
2022-10-19T00:11:54.618Z,98812.00
2022-10-19T00:12:04.623Z,98812.00
2022-10-19T00:12:14.626Z,98812.00
2022-10-19T00:12:24.742Z,98810.00
2022-10-19T00:12:34.881Z,98812.00
2022-10-19T00:12:44.964Z,98812.00
2022-10-19T00:12:54.954Z,98813.00
2022-10-19T00:13:05.073Z,98813.00
2022-10-19T00:13:15.185Z,98810.00
2022-10-19T00:13:25.301Z,98810.00
2022-10-19T00:13:35.417Z,98810.00
2022-10-19T00:13:45.540Z,98808.00
2022-10-19T00:13:55.537Z,98810.00
2022-10-19T00:14:05.669Z,98812.00
2022-10-19T00:14:15.791Z,98810.00
2022-10-19T00:14:25.922Z,98810.00
2022-10-19T00:14:36.029Z,98810.00
2022-10-19T00:14:46.150Z,98808.00
2022-10-19T00:14:56.267Z,98808.00
2022-10-19T00:15:06.385Z,98812.00
2022-10-19T00:15:16.519Z,98808.00
2022-10-19T00:15:26.633Z,98808.00
2022-10-19T00:15:36.632Z,98808.00
2022-10-19T00:15:46.878Z,98808.00
2022-10-19T00:15:56.993Z,98810.00
2022-10-19T00:16:10.609Z,98810.00
2022-10-19T00:16:17.221Z,98806.00
2022-10-19T00:16:27.259Z,98810.00
2022-10-19T00:16:37.382Z,98810.00
2022-10-19T00:16:47.495Z,98812.00
2022-10-19T00:16:57.620Z,98812.00
2022-10-19T00:17:07.616Z,98810.00
2022-10-19T00:17:17.733Z,98812.00
2022-10-19T00:17:28.005Z,98812.00
2022-10-19T00:17:37.992Z,98810.00
2022-10-19T00:17:48.117Z,98810.00
2022-10-19T00:17:58.362Z,98812.00
2022-10-19T00:18:08.476Z,98812.00
2022-10-19T00:18:18.592Z,98810.00
2022-10-19T00:18:28.718Z,98813.00
2022-10-19T00:18:38.853Z,98812.00
2022-10-19T00:18:48.841Z,98812.00
2022-10-19T00:18:59.084Z,98810.00
2022-10-19T00:19:09.223Z,98810.00
2022-10-19T00:19:19.322Z,98810.00
2022-10-19T00:19:29.440Z,98810.00
2022-10-19T00:19:39.558Z,98810.00
2022-10-19T00:19:49.568Z,98810.00
2022-10-19T00:19:59.816Z,98812.00
2022-10-19T00:20:09.833Z,98812.00
2022-10-19T00:20:19.938Z,98806.00
2022-10-19T00:20:30.184Z,98812.00
2022-10-19T00:20:40.303Z,98813.00
2022-10-19T00:20:50.296Z,98810.00
2022-10-19T00:21:00.549Z,98810.00
2022-10-19T00:21:10.664Z,98810.00
2022-10-19T00:21:20.835Z,98810.00
2022-10-19T00:21:30.951Z,98810.00
2022-10-19T00:21:41.135Z,98810.00
2022-10-19T00:22:01.302Z,98808.00
2022-10-19T00:22:13.838Z,98810.00
2022-10-19T00:22:21.373Z,98808.00
2022-10-19T00:22:31.709Z,98812.00
2022-10-19T00:22:41.444Z,98812.00
2022-10-19T00:22:51.562Z,98810.00
2022-10-19T00:23:01.679Z,98810.00
2022-10-19T00:23:11.794Z,98810.00
2022-10-19T00:23:21.924Z,98810.00
2022-10-19T00:23:31.932Z,98810.00
2022-10-19T00:23:41.928Z,98810.00
2022-10-19T00:23:52.049Z,98808.00
2022-10-19T00:24:02.176Z,98810.00
2022-10-19T00:24:12.284Z,98808.00
2022-10-19T00:24:22.408Z,98810.00
2022-10-19T00:24:32.522Z,98808.00
2022-10-19T00:24:42.647Z,98810.00
2022-10-19T00:24:52.774Z,98810.00
2022-10-19T00:25:02.893Z,98810.00
2022-10-19T00:25:12.891Z,98806.00
2022-10-19T00:25:23.009Z,98810.00
2022-10-19T00:25:33.008Z,98808.00
2022-10-19T00:25:43.121Z,98808.00
2022-10-19T00:25:53.367Z,98808.00
2022-10-19T00:26:03.487Z,98808.00
2022-10-19T00:26:13.484Z,98812.00
2022-10-19T00:26:23.732Z,98810.00
2022-10-19T00:26:33.847Z,98808.00
2022-10-19T00:26:43.972Z,98810.00
2022-10-19T00:26:54.085Z,98810.00
2022-10-19T00:27:04.202Z,98810.00
2022-10-19T00:27:14.325Z,98810.00
2022-10-19T00:27:24.451Z,98812.00
2022-10-19T00:27:34.569Z,98810.00
2022-10-19T00:27:44.686Z,98810.00
2022-10-19T00:27:54.810Z,98808.00
2022-10-19T00:28:04.916Z,98808.00
2022-10-19T00:28:14.913Z,98808.00
2022-10-19T00:28:25.363Z,98808.00
2022-10-19T00:28:35.288Z,98810.00
2022-10-19T00:28:45.357Z,98810.00
2022-10-19T00:28:55.732Z,98806.00
2022-10-19T00:29:05.808Z,98812.00
2022-10-19T00:29:15.894Z,98808.00
2022-10-19T00:29:26.150Z,98808.00
2022-10-19T00:29:36.268Z,98808.00
2022-10-19T00:29:46.386Z,98806.00
2022-10-19T00:29:56.510Z,98806.00
2022-10-19T00:30:06.630Z,98806.00
2022-10-19T00:30:16.746Z,98806.00
2022-10-19T00:30:26.868Z,98806.00
2022-10-19T00:30:36.914Z,98806.00
2022-10-19T00:30:46.936Z,98806.00
2022-10-19T00:30:57.318Z,98802.00
2022-10-19T00:31:07.433Z,98804.00
2022-10-19T00:31:17.430Z,98804.00
2022-10-19T00:31:27.702Z,98804.00
2022-10-19T00:31:37.792Z,98804.00
2022-10-19T00:31:47.913Z,98804.00
2022-10-19T00:31:58.038Z,98804.00
2022-10-19T00:32:08.159Z,98804.00
2022-10-19T00:32:18.152Z,98800.00
2022-10-19T00:32:28.397Z,98802.00
2022-10-19T00:32:38.540Z,98800.00
2022-10-19T00:32:48.529Z,98802.00
2022-10-19T00:32:58.775Z,98800.00
2022-10-19T00:33:08.901Z,98804.00
2022-10-19T00:33:18.893Z,98804.00
2022-10-19T00:33:29.149Z,98802.00
2022-10-19T00:33:39.273Z,98802.00
2022-10-19T00:33:49.379Z,98800.00
2022-10-19T00:33:59.511Z,98800.00
2022-10-19T00:34:09.631Z,98802.00
2022-10-19T00:34:19.624Z,98802.00
2022-10-19T00:34:29.883Z,98800.00
2022-10-19T00:34:39.881Z,98800.00
2022-10-19T00:34:49.989Z,98800.00
2022-10-19T00:35:00.243Z,98800.00
2022-10-19T00:35:10.363Z,98798.00
2022-10-19T00:35:20.368Z,98796.00
2022-10-19T00:35:30.630Z,98800.00
2022-10-19T00:35:40.630Z,98798.00
2022-10-19T00:35:50.751Z,98800.00
2022-10-19T00:36:01.012Z,98798.00
2022-10-19T00:36:11.132Z,98800.00
2022-10-19T00:36:21.124Z,98798.00
2022-10-19T00:36:31.372Z,98798.00
2022-10-19T00:36:41.381Z,98798.00
2022-10-19T00:36:51.495Z,98800.00
2022-10-19T00:37:01.742Z,98800.00
2022-10-19T00:37:11.857Z,98796.00
2022-10-19T00:37:21.973Z,98798.00
2022-10-19T00:37:32.096Z,98798.00
2022-10-19T00:37:42.210Z,98800.00
2022-10-19T00:37:52.329Z,98796.00
2022-10-19T00:38:02.464Z,98796.00
2022-10-19T00:38:12.583Z,98798.00
2022-10-19T00:38:22.697Z,98798.00
2022-10-19T00:38:32.821Z,98796.00
2022-10-19T00:38:42.834Z,98794.00
2022-10-19T00:38:52.826Z,98798.00
2022-10-19T00:39:03.196Z,98796.00
2022-10-19T00:39:13.326Z,98798.00
2022-10-19T00:39:23.434Z,98796.00
2022-10-19T00:39:33.552Z,98798.00
2022-10-19T00:39:43.712Z,98798.00
2022-10-19T00:39:53.712Z,98798.00
2022-10-19T00:40:03.952Z,98798.00
2022-10-19T00:40:14.071Z,98798.00
2022-10-19T00:40:24.068Z,98796.00
2022-10-19T00:40:34.336Z,98798.00
2022-10-19T00:40:44.325Z,98800.00
2022-10-19T00:40:54.448Z,98800.00
2022-10-19T00:41:04.702Z,98800.00
2022-10-19T00:41:14.825Z,98800.00
2022-10-19T00:41:24.936Z,98800.00
2022-10-19T00:41:35.057Z,98798.00
2022-10-19T00:41:45.183Z,98802.00
2022-10-19T00:41:55.305Z,98800.00
2022-10-19T00:42:05.426Z,98800.00
2022-10-19T00:42:15.541Z,98798.00
2022-10-19T00:42:25.541Z,98800.00
2022-10-19T00:42:35.971Z,98800.00
2022-10-19T00:42:45.833Z,98800.00
2022-10-19T00:42:55.952Z,98800.00
2022-10-19T00:43:06.219Z,98800.00
2022-10-19T00:43:16.325Z,98802.00
2022-10-19T00:43:26.440Z,98796.00
2022-10-19T00:43:36.561Z,98796.00
2022-10-19T00:43:46.561Z,98798.00
2022-10-19T00:43:56.563Z,98798.00
2022-10-19T00:44:06.938Z,98796.00
2022-10-19T00:44:17.062Z,98796.00
2022-10-19T00:44:27.172Z,98798.00
2022-10-19T00:44:37.289Z,98798.00
2022-10-19T00:44:47.403Z,98798.00
2022-10-19T00:44:57.525Z,98800.00
2022-10-19T00:45:07.656Z,98798.00
2022-10-19T00:45:17.779Z,98798.00
2022-10-19T00:45:27.900Z,98800.00
2022-10-19T00:45:38.024Z,98798.00
2022-10-19T00:45:48.022Z,98800.00
2022-10-19T00:45:58.143Z,98798.00
2022-10-19T00:46:08.387Z,98800.00
2022-10-19T00:46:18.503Z,98800.00
2022-10-19T00:46:28.618Z,98800.00
2022-10-19T00:46:38.775Z,98796.00
2022-10-19T00:46:48.749Z,98798.00
2022-10-19T00:46:58.864Z,98798.00
2022-10-19T00:47:09.113Z,98798.00
2022-10-19T00:47:19.239Z,98798.00
2022-10-19T00:47:29.235Z,98798.00
2022-10-19T00:47:39.485Z,98800.00
2022-10-19T00:47:49.596Z,98800.00
2022-10-19T00:47:59.711Z,98798.00
2022-10-19T00:48:09.832Z,98798.00
2022-10-19T00:48:19.952Z,98798.00
2022-10-19T00:48:30.061Z,98800.00
2022-10-19T00:48:40.242Z,98798.00
2022-10-19T00:48:50.284Z,98798.00
2022-10-19T00:49:01.462Z,98798.00
2022-10-19T00:49:11.084Z,98800.00
2022-10-19T00:49:20.584Z,98798.00
2022-10-19T00:49:30.591Z,98796.00
2022-10-19T00:49:40.719Z,98800.00
2022-10-19T00:49:50.714Z,98798.00
2022-10-19T00:50:00.834Z,98800.00
2022-10-19T00:50:10.838Z,98800.00
2022-10-19T00:50:20.954Z,98796.00
2022-10-19T00:50:31.077Z,98798.00
2022-10-19T00:50:41.204Z,98798.00
2022-10-19T00:50:51.321Z,98800.00
2022-10-19T00:51:01.317Z,98798.00
2022-10-19T00:51:11.445Z,98796.00
2022-10-19T00:51:21.439Z,98798.00
2022-10-19T00:51:31.694Z,98798.00
2022-10-19T00:51:41.808Z,98798.00
2022-10-19T00:51:51.930Z,98798.00
2022-10-19T00:52:02.048Z,98800.00
2022-10-19T00:52:12.048Z,98798.00
2022-10-19T00:52:22.186Z,98798.00
2022-10-19T00:52:32.815Z,98798.00
2022-10-19T00:52:42.529Z,98800.00
2022-10-19T00:52:52.525Z,98798.00
2022-10-19T00:53:02.908Z,98798.00
2022-10-19T00:53:13.027Z,98800.00
2022-10-19T00:53:23.144Z,98796.00
2022-10-19T00:53:33.278Z,98802.00
2022-10-19T00:53:43.405Z,98796.00
2022-10-19T00:53:53.401Z,98798.00
2022-10-19T00:54:03.652Z,98800.00
2022-10-19T00:54:13.652Z,98794.00
2022-10-19T00:54:23.767Z,98794.00
2022-10-19T00:54:34.016Z,98796.00
2022-10-19T00:54:44.146Z,98798.00
2022-10-19T00:54:54.280Z,98798.00
2022-10-19T00:55:04.404Z,98794.00
2022-10-19T00:55:14.520Z,98794.00
2022-10-19T00:55:24.641Z,98794.00
2022-10-19T00:55:34.766Z,98796.00
2022-10-19T00:55:44.770Z,98794.00
2022-10-19T00:55:54.780Z,98796.00
2022-10-19T00:56:05.153Z,98794.00
2022-10-19T00:56:15.156Z,98794.00
2022-10-19T00:56:25.277Z,98794.00
2022-10-19T00:56:35.523Z,98794.00
2022-10-19T00:56:45.654Z,98792.00
2022-10-19T00:56:55.652Z,98790.00
2022-10-19T00:57:05.904Z,98788.00
2022-10-19T00:57:15.901Z,98790.00
2022-10-19T00:57:26.094Z,98790.00
2022-10-19T00:57:36.250Z,98790.00
2022-10-19T00:57:46.429Z,98788.00
2022-10-19T00:57:56.409Z,98790.00
2022-10-19T00:58:06.667Z,98788.00
2022-10-19T00:58:16.666Z,98790.00
2022-10-19T00:58:26.782Z,98790.00
2022-10-19T00:58:37.042Z,98786.00
2022-10-19T00:58:47.044Z,98790.00
2022-10-19T00:58:57.053Z,98786.00
2022-10-19T00:59:07.437Z,98790.00
2022-10-19T00:59:17.555Z,98786.00
2022-10-19T00:59:27.674Z,98784.00
2022-10-19T00:59:37.799Z,98786.00
2022-10-19T00:59:47.913Z,98784.00
2022-10-19T00:59:58.030Z,98784.00
2022-10-19T01:00:08.198Z,98784.00
2022-10-19T01:02:30.342Z,98780.00
2022-10-19T01:02:40.306Z,98786.00
2022-10-19T01:02:50.297Z,98784.00
2022-10-19T01:03:39.939Z,98784.00
2022-10-19T01:03:50.060Z,98784.00
2022-10-19T01:04:00.184Z,98786.00
2022-10-19T01:04:10.307Z,98784.00
2022-10-19T01:04:20.419Z,98782.00
2022-10-19T01:04:30.552Z,98788.00
2022-10-19T01:04:40.665Z,98786.00
2022-10-19T01:04:50.780Z,98786.00
2022-10-19T01:05:00.902Z,98788.00
2022-10-19T01:05:11.023Z,98786.00
2022-10-19T01:05:21.141Z,98788.00
2022-10-19T01:05:31.256Z,98788.00
2022-10-19T01:05:41.376Z,98786.00
2022-10-19T01:05:51.495Z,98786.00
2022-10-19T01:06:01.617Z,98786.00
2022-10-19T01:06:11.739Z,98786.00
2022-10-19T01:06:21.857Z,98784.00
2022-10-19T01:06:31.854Z,98786.00
2022-10-19T01:06:42.180Z,98786.00
2022-10-19T01:06:52.187Z,98786.00
2022-10-19T01:07:02.293Z,98786.00
2022-10-19T01:07:12.538Z,98786.00
2022-10-19T01:07:22.655Z,98792.00
2022-10-19T01:07:32.902Z,98790.00
2022-10-19T01:07:43.006Z,98790.00
2022-10-19T01:07:53.121Z,98790.00
2022-10-19T01:08:03.244Z,98788.00
2022-10-19T01:08:13.373Z,98790.00
2022-10-19T01:08:23.505Z,98790.00
2022-10-19T01:08:33.494Z,98788.00
2022-10-19T01:08:43.748Z,98790.00
2022-10-19T01:08:53.746Z,98790.00
2022-10-19T01:09:03.862Z,98790.00
2022-10-19T01:09:14.118Z,98788.00
2022-10-19T01:09:24.248Z,98790.00
2022-10-19T01:09:34.250Z,98788.00
2022-10-19T01:09:44.498Z,98790.00
2022-10-19T01:09:54.615Z,98792.00
2022-10-19T01:10:04.740Z,98788.00
2022-10-19T01:10:14.868Z,98792.00
2022-10-19T01:10:24.980Z,98790.00
2022-10-19T01:10:34.975Z,98790.00
2022-10-19T01:10:45.222Z,98792.00
2022-10-19T01:10:55.336Z,98786.00
2022-10-19T01:11:05.452Z,98792.00
2022-10-19T01:11:15.584Z,98794.00
2022-10-19T01:11:25.688Z,98792.00
2022-10-19T01:11:35.686Z,98792.00
2022-10-19T01:11:45.935Z,98792.00
2022-10-19T01:11:55.930Z,98794.00
2022-10-19T01:12:06.051Z,98790.00
2022-10-19T01:12:16.299Z,98792.00
2022-10-19T01:12:26.419Z,98792.00
2022-10-19T01:12:36.533Z,98794.00
2022-10-19T01:12:46.662Z,98794.00
2022-10-19T01:12:56.654Z,98792.00
2022-10-19T01:13:06.775Z,98792.00
2022-10-19T01:13:17.016Z,98792.00
2022-10-19T01:13:27.131Z,98790.00
2022-10-19T01:13:37.128Z,98792.00
2022-10-19T01:13:47.388Z,98792.00
2022-10-19T01:13:57.387Z,98792.00
2022-10-19T01:14:07.502Z,98792.00
2022-10-19T01:14:17.770Z,98792.00
2022-10-19T01:14:27.758Z,98792.00
2022-10-19T01:14:37.886Z,98792.00
2022-10-19T01:14:48.130Z,98794.00
2022-10-19T01:14:58.243Z,98794.00
2022-10-19T01:15:08.362Z,98794.00
2022-10-19T01:15:18.494Z,98794.00
2022-10-19T01:15:28.504Z,98796.00
2022-10-19T01:15:38.492Z,98796.00
2022-10-19T01:15:48.937Z,98796.00
2022-10-19T01:15:58.912Z,98796.00
2022-10-19T01:16:09.030Z,98798.00
2022-10-19T01:16:19.273Z,98796.00
2022-10-19T01:16:29.393Z,98798.00
2022-10-19T01:16:39.521Z,98798.00
2022-10-19T01:16:49.635Z,98798.00
2022-10-19T01:16:59.759Z,98800.00
2022-10-19T01:17:09.880Z,98798.00
2022-10-19T01:17:19.998Z,98796.00
2022-10-19T01:17:30.215Z,98798.00
2022-10-19T01:17:40.163Z,98796.00
2022-10-19T01:17:50.393Z,98800.00
2022-10-19T01:18:00.521Z,98800.00
2022-10-19T01:18:10.515Z,98796.00
2022-10-19T01:18:20.855Z,98800.00
2022-10-19T01:18:30.843Z,98802.00
2022-10-19T01:18:40.960Z,98798.00
2022-10-19T01:18:51.208Z,98800.00
2022-10-19T01:19:01.336Z,98800.00
2022-10-19T01:19:11.331Z,98796.00
2022-10-19T01:19:21.584Z,98800.00
2022-10-19T01:19:31.700Z,98798.00
2022-10-19T01:19:41.820Z,98800.00
2022-10-19T01:19:51.942Z,98798.00
2022-10-19T01:20:02.059Z,98798.00
2022-10-19T01:20:12.066Z,98798.00
2022-10-19T01:20:22.312Z,98798.00
2022-10-19T01:20:32.424Z,98798.00
2022-10-19T01:20:42.542Z,98800.00
2022-10-19T01:20:52.698Z,98798.00
2022-10-19T01:21:02.690Z,98798.00
2022-10-19T01:21:12.803Z,98800.00
2022-10-19T01:21:23.049Z,98798.00
2022-10-19T01:21:33.165Z,98798.00
2022-10-19T01:21:43.283Z,98800.00
2022-10-19T01:21:53.404Z,98800.00
2022-10-19T01:22:03.524Z,98798.00
2022-10-19T01:22:13.521Z,98798.00
2022-10-19T01:22:23.769Z,98800.00
2022-10-19T01:22:33.767Z,98794.00
2022-10-19T01:22:43.885Z,98800.00
2022-10-19T01:22:54.131Z,98802.00
2022-10-19T01:23:04.248Z,98802.00
2022-10-19T01:23:14.244Z,98802.00
2022-10-19T01:23:24.493Z,98802.00
2022-10-19T01:23:34.607Z,98802.00
2022-10-19T01:23:44.725Z,98802.00
2022-10-19T01:23:54.860Z,98802.00
2022-10-19T01:24:04.855Z,98800.00
2022-10-19T01:24:14.854Z,98802.00
2022-10-19T01:24:25.229Z,98800.00
2022-10-19T01:24:37.110Z,98802.00
2022-10-19T01:24:45.400Z,98798.00
2022-10-19T01:25:05.764Z,98796.00
2022-10-19T01:25:15.882Z,98800.00
2022-10-19T01:25:26.007Z,98798.00
2022-10-19T01:25:36.120Z,98800.00
2022-10-19T01:25:46.238Z,98798.00
2022-10-19T01:25:56.369Z,98800.00
2022-10-19T01:26:06.485Z,98798.00
2022-10-19T01:26:16.606Z,98800.00
2022-10-19T01:26:26.728Z,98800.00
2022-10-19T01:26:36.742Z,98800.00
2022-10-19T01:26:46.732Z,98798.00
2022-10-19T01:26:57.107Z,98800.00
2022-10-19T01:27:07.233Z,98798.00
2022-10-19T01:27:17.226Z,98798.00
2022-10-19T01:27:27.474Z,98798.00
2022-10-19T01:27:37.596Z,98798.00
2022-10-19T01:27:47.708Z,98800.00
2022-10-19T01:27:57.834Z,98800.00
2022-10-19T01:28:07.952Z,98800.00
2022-10-19T01:28:18.067Z,98800.00
2022-10-19T01:28:28.213Z,98800.00
2022-10-19T01:28:38.332Z,98796.00
2022-10-19T01:28:48.305Z,98800.00
2022-10-19T01:28:58.377Z,98800.00
2022-10-19T01:29:08.519Z,98800.00
2022-10-19T01:29:18.422Z,98800.00
2022-10-19T01:29:28.539Z,98798.00
2022-10-19T01:29:38.669Z,98800.00
2022-10-19T01:29:48.786Z,98798.00
2022-10-19T01:29:58.800Z,98798.00
2022-10-19T01:30:08.806Z,98800.00
2022-10-19T01:30:18.920Z,98798.00
2022-10-19T01:30:29.035Z,98798.00
2022-10-19T01:30:39.156Z,98798.00
2022-10-19T01:30:49.273Z,98798.00
2022-10-19T01:30:59.274Z,98798.00
2022-10-19T01:31:09.534Z,98798.00
2022-10-19T01:31:19.690Z,98798.00
2022-10-19T01:31:29.692Z,98798.00
2022-10-19T01:31:39.945Z,98798.00
2022-10-19T01:31:50.046Z,98798.00
2022-10-19T01:32:00.163Z,98800.00
2022-10-19T01:32:10.285Z,98798.00
2022-10-19T01:32:20.280Z,98798.00
2022-10-19T01:32:30.398Z,98796.00
2022-10-19T01:32:40.641Z,98796.00
2022-10-19T01:32:50.789Z,98796.00
2022-10-19T01:33:00.892Z,98798.00
2022-10-19T01:33:11.015Z,98798.00
2022-10-19T01:33:21.014Z,98796.00
2022-10-19T01:33:31.130Z,98798.00
2022-10-19T01:33:41.399Z,98796.00
2022-10-19T01:33:51.434Z,98796.00
2022-10-19T01:34:01.444Z,98796.00
2022-10-19T01:34:11.432Z,98796.00
2022-10-19T01:34:21.433Z,98796.00
2022-10-19T01:34:31.564Z,98796.00
2022-10-19T01:34:41.561Z,98794.00
2022-10-19T01:34:51.688Z,98796.00
2022-10-19T01:35:01.680Z,98794.00
2022-10-19T01:35:11.804Z,98796.00
2022-10-19T01:35:21.921Z,98794.00
2022-10-19T01:35:32.033Z,98794.00
2022-10-19T01:35:42.036Z,98796.00
2022-10-19T01:35:52.156Z,98796.00
2022-10-19T01:36:02.154Z,98796.00
2022-10-19T01:36:12.280Z,98794.00
2022-10-19T01:36:22.525Z,98796.00
2022-10-19T01:36:32.642Z,98792.00
2022-10-19T01:36:42.761Z,98794.00
2022-10-19T01:36:52.880Z,98796.00
2022-10-19T01:37:02.994Z,98796.00
2022-10-19T01:37:13.118Z,98798.00
2022-10-19T01:37:23.232Z,98794.00
2022-10-19T01:37:33.678Z,98796.00
2022-10-19T01:37:43.469Z,98796.00
2022-10-19T01:37:53.591Z,98796.00
2022-10-19T01:38:03.588Z,98796.00
2022-10-19T01:38:13.706Z,98800.00
2022-10-19T01:38:23.954Z,98798.00
2022-10-19T01:38:34.071Z,98798.00
2022-10-19T01:38:44.071Z,98798.00
2022-10-19T01:38:54.321Z,98796.00
2022-10-19T01:39:04.436Z,98798.00
2022-10-19T01:39:14.555Z,98802.00
2022-10-19T01:39:24.675Z,98798.00
2022-10-19T01:39:34.677Z,98798.00
2022-10-19T01:39:47.719Z,98798.00
2022-10-19T01:39:54.801Z,98798.00
2022-10-19T01:40:04.916Z,98796.00
2022-10-19T01:40:15.051Z,98798.00
2022-10-19T01:40:25.066Z,98796.00
2022-10-19T01:40:35.058Z,98798.00
2022-10-19T01:40:45.063Z,98798.00
2022-10-19T01:40:55.195Z,98800.00
2022-10-19T01:41:05.189Z,98796.00
2022-10-19T01:41:15.304Z,98796.00
2022-10-19T01:41:25.418Z,98794.00
2022-10-19T01:41:35.533Z,98798.00
2022-10-19T01:41:45.663Z,98796.00
2022-10-19T01:41:55.781Z,98798.00
2022-10-19T01:42:05.892Z,98798.00
2022-10-19T01:42:16.013Z,98800.00
2022-10-19T01:42:26.130Z,98798.00
2022-10-19T01:42:36.243Z,98796.00
2022-10-19T01:42:46.416Z,98796.00
2022-10-19T01:42:56.394Z,98796.00
2022-10-19T01:43:06.506Z,98796.00
2022-10-19T01:43:16.754Z,98792.00
2022-10-19T01:43:26.866Z,98792.00
2022-10-19T01:43:36.983Z,98794.00
2022-10-19T01:43:47.115Z,98796.00
2022-10-19T01:43:57.112Z,98796.00
2022-10-19T01:44:07.132Z,98794.00
2022-10-19T01:44:17.508Z,98796.00
2022-10-19T01:44:27.621Z,98794.00
2022-10-19T01:44:37.751Z,98790.00
2022-10-19T01:44:47.866Z,98790.00
2022-10-19T01:44:57.996Z,98794.00
2022-10-19T01:45:08.100Z,98790.00
2022-10-19T01:45:18.218Z,98792.00
2022-10-19T01:45:28.333Z,98790.00
2022-10-19T01:45:38.451Z,98794.00
2022-10-19T01:45:48.576Z,98792.00
2022-10-19T01:45:58.577Z,98792.00
2022-10-19T01:46:08.572Z,98794.00
2022-10-19T01:46:18.960Z,98792.00
2022-10-19T01:46:29.075Z,98792.00
2022-10-19T01:46:39.198Z,98792.00
2022-10-19T01:46:49.312Z,98792.00
2022-10-19T01:46:59.313Z,98792.00
2022-10-19T01:47:09.429Z,98788.00
2022-10-19T01:47:19.687Z,98790.00
2022-10-19T01:47:29.685Z,98788.00
2022-10-19T01:47:39.804Z,98790.00
2022-10-19T01:47:50.051Z,98790.00
2022-10-19T01:48:00.196Z,98788.00
2022-10-19T01:48:10.165Z,98788.00
2022-10-19T01:48:20.418Z,98786.00
2022-10-19T01:48:30.413Z,98790.00
2022-10-19T01:48:40.539Z,98790.00
2022-10-19T01:48:50.802Z,98788.00
2022-10-19T01:49:00.917Z,98790.00
2022-10-19T01:49:11.034Z,98788.00
2022-10-19T01:49:21.154Z,98788.00
2022-10-19T01:49:31.282Z,98788.00
2022-10-19T01:49:41.390Z,98788.00
2022-10-19T01:49:51.510Z,98788.00
2022-10-19T01:50:01.627Z,98788.00
2022-10-19T01:50:11.742Z,98788.00
2022-10-19T01:50:21.865Z,98788.00
2022-10-19T01:50:31.865Z,98788.00
2022-10-19T01:50:41.988Z,98786.00
2022-10-19T01:50:52.232Z,98786.00
2022-10-19T01:51:02.352Z,98786.00
2022-10-19T01:51:12.349Z,98786.00
2022-10-19T01:51:22.601Z,98786.00
2022-10-19T01:51:32.721Z,98786.00
2022-10-19T01:51:42.833Z,98788.00
2022-10-19T01:51:52.980Z,98784.00
2022-10-19T01:52:02.970Z,98786.00
2022-10-19T01:52:13.078Z,98786.00
2022-10-19T01:52:23.326Z,98786.00
2022-10-19T01:52:33.656Z,98786.00
2022-10-19T01:52:43.379Z,98786.00
2022-10-19T01:52:53.754Z,98786.00
2022-10-19T01:53:03.878Z,98784.00
2022-10-19T01:53:13.873Z,98786.00
2022-10-19T01:53:24.128Z,98786.00
2022-10-19T01:53:34.245Z,98784.00
2022-10-19T01:53:44.361Z,98784.00
2022-10-19T01:53:54.550Z,98784.00
2022-10-19T01:54:04.541Z,98784.00
2022-10-19T01:54:14.656Z,98784.00
2022-10-19T01:54:24.904Z,98784.00
2022-10-19T01:54:35.021Z,98782.00
2022-10-19T01:54:45.147Z,98784.00
2022-10-19T01:54:55.279Z,98790.00
2022-10-19T01:55:05.384Z,98790.00
2022-10-19T01:55:15.498Z,98790.00
2022-10-19T01:55:25.636Z,98790.00
2022-10-19T01:55:35.624Z,98784.00
2022-10-19T01:55:45.744Z,98788.00
2022-10-19T01:55:56.017Z,98784.00
2022-10-19T01:56:06.005Z,98786.00
2022-10-19T01:56:16.004Z,98790.00
2022-10-19T01:56:26.378Z,98790.00
2022-10-19T01:56:36.375Z,98792.00
2022-10-19T01:56:46.497Z,98786.00
2022-10-19T01:56:56.752Z,98784.00
2022-10-19T01:57:06.870Z,98784.00
2022-10-19T01:57:16.985Z,98786.00
2022-10-19T01:57:27.104Z,98786.00
2022-10-19T01:57:37.105Z,98788.00
2022-10-19T01:57:47.222Z,98788.00
2022-10-19T01:57:57.471Z,98786.00
2022-10-19T01:58:09.542Z,98790.00
2022-10-19T01:58:17.608Z,98788.00
2022-10-19T01:58:27.727Z,98786.00
2022-10-19T01:58:37.843Z,98788.00
2022-10-19T01:58:47.963Z,98786.00
2022-10-19T01:58:57.967Z,98788.00
2022-10-19T01:59:08.087Z,98786.00
2022-10-19T01:59:18.087Z,98788.00
2022-10-19T01:59:28.205Z,98788.00
2022-10-19T01:59:38.326Z,98788.00
2022-10-19T01:59:48.444Z,98790.00
2022-10-19T01:59:58.558Z,98790.00
2022-10-19T02:00:08.681Z,98788.00
2022-10-19T02:00:18.796Z,98784.00
2022-10-19T02:00:28.913Z,98784.00
2022-10-19T02:00:39.169Z,98786.00
2022-10-19T02:00:49.151Z,98784.00
2022-10-19T02:00:59.142Z,98784.00
2022-10-19T02:01:19.542Z,98784.00
2022-10-19T02:01:29.543Z,98782.00
2022-10-19T02:01:39.792Z,98786.00
2022-10-19T02:01:49.904Z,98784.00
2022-10-19T02:02:00.024Z,98782.00
2022-10-19T02:02:10.164Z,98784.00
2022-10-19T02:02:20.163Z,98780.00